sensor_id;sensor_type;location;lat;lon;timestamp;P1;durP1;ratioP1;P2;durP2;ratioP2
75320;SDS011;63920;52.130;5.584;2023-03-01T00:01:06;17.35;;;10.70;;
75320;SDS011;63920;52.130;5.584;2023-03-01T00:03:34;12.25;;;9.68;;
75320;SDS011;63920;52.130;5.584;2023-03-01T00:06:01;13.35;;;10.13;;
75320;SDS011;63920;52.130;5.584;2023-03-01T00:08:27;13.32;;;10.27;;
75320;SDS011;63920;52.130;5.584;2023-03-01T00:11:00;15.55;;;9.77;;
75320;SDS011;63920;52.130;5.584;2023-03-01T00:13:32;15.25;;;9.60;;
75320;SDS011;63920;52.130;5.584;2023-03-01T00:15:58;15.25;;;10.63;;
75320;SDS011;63920;52.130;5.584;2023-03-01T00:18:26;13.75;;;10.13;;
75320;SDS011;63920;52.130;5.584;2023-03-01T00:20:52;12.85;;;9.27;;
75320;SDS011;63920;52.130;5.584;2023-03-01T00:23:19;13.98;;;9.75;;
75320;SDS011;63920;52.130;5.584;2023-03-01T00:25:45;13.98;;;9.68;;
75320;SDS011;63920;52.130;5.584;2023-03-01T00:28:11;13.02;;;9.43;;
75320;SDS011;63920;52.130;5.584;2023-03-01T00:30:37;11.18;;;9.05;;
75320;SDS011;63920;52.130;5.584;2023-03-01T00:33:02;14.95;;;9.95;;
75320;SDS011;63920;52.130;5.584;2023-03-01T00:35:28;15.73;;;9.95;;
75320;SDS011;63920;52.130;5.584;2023-03-01T00:37:54;14.77;;;9.00;;
75320;SDS011;63920;52.130;5.584;2023-03-01T00:40:26;11.93;;;8.63;;
75320;SDS011;63920;52.130;5.584;2023-03-01T00:42:52;13.50;;;8.55;;
75320;SDS011;63920;52.130;5.584;2023-03-01T00:45:18;12.43;;;8.18;;
75320;SDS011;63920;52.130;5.584;2023-03-01T00:47:44;12.68;;;7.95;;
75320;SDS011;63920;52.130;5.584;2023-03-01T00:50:10;13.00;;;9.05;;
75320;SDS011;63920;52.130;5.584;2023-03-01T00:52:36;13.80;;;8.48;;
75320;SDS011;63920;52.130;5.584;2023-03-01T00:55:02;13.13;;;8.10;;
75320;SDS011;63920;52.130;5.584;2023-03-01T00:57:29;10.82;;;7.82;;
75320;SDS011;63920;52.130;5.584;2023-03-01T00:59:54;9.50;;;7.50;;
75320;SDS011;63920;52.130;5.584;2023-03-01T01:02:20;12.45;;;7.80;;
75320;SDS011;63920;52.130;5.584;2023-03-01T01:04:46;10.52;;;7.85;;
75320;SDS011;63920;52.130;5.584;2023-03-01T01:07:12;10.35;;;7.63;;
75320;SDS011;63920;52.130;5.584;2023-03-01T01:09:38;9.85;;;7.20;;
75320;SDS011;63920;52.130;5.584;2023-03-01T01:12:04;11.55;;;7.03;;
75320;SDS011;63920;52.130;5.584;2023-03-01T01:14:30;9.77;;;7.28;;
75320;SDS011;63920;52.130;5.584;2023-03-01T01:16:56;8.45;;;7.45;;
75320;SDS011;63920;52.130;5.584;2023-03-01T01:19:22;9.57;;;6.80;;
75320;SDS011;63920;52.130;5.584;2023-03-01T01:21:48;11.45;;;8.00;;
75320;SDS011;63920;52.130;5.584;2023-03-01T01:24:14;13.60;;;7.78;;
75320;SDS011;63920;52.130;5.584;2023-03-01T01:26:41;14.43;;;7.63;;
75320;SDS011;63920;52.130;5.584;2023-03-01T01:29:07;10.10;;;8.20;;
75320;SDS011;63920;52.130;5.584;2023-03-01T01:31:34;12.95;;;8.07;;
75320;SDS011;63920;52.130;5.584;2023-03-01T01:34:02;8.98;;;7.40;;
75320;SDS011;63920;52.130;5.584;2023-03-01T01:36:29;9.93;;;6.97;;
75320;SDS011;63920;52.130;5.584;2023-03-01T01:38:55;10.30;;;7.47;;
75320;SDS011;63920;52.130;5.584;2023-03-01T01:41:22;13.05;;;7.38;;
75320;SDS011;63920;52.130;5.584;2023-03-01T01:44:08;11.05;;;7.55;;
75320;SDS011;63920;52.130;5.584;2023-03-01T01:46:35;11.98;;;7.38;;
75320;SDS011;63920;52.130;5.584;2023-03-01T01:49:27;18.25;;;7.57;;
75320;SDS011;63920;52.130;5.584;2023-03-01T01:52:19;9.57;;;7.10;;
75320;SDS011;63920;52.130;5.584;2023-03-01T01:55:03;8.65;;;7.55;;
75320;SDS011;63920;52.130;5.584;2023-03-01T01:57:56;9.55;;;6.95;;
75320;SDS011;63920;52.130;5.584;2023-03-01T02:00:26;11.98;;;7.30;;
75320;SDS011;63920;52.130;5.584;2023-03-01T02:02:56;9.98;;;7.50;;
75320;SDS011;63920;52.130;5.584;2023-03-01T02:05:43;8.98;;;7.45;;
75320;SDS011;63920;52.130;5.584;2023-03-01T02:08:15;10.70;;;7.63;;
75320;SDS011;63920;52.130;5.584;2023-03-01T02:10:44;9.95;;;7.28;;
75320;SDS011;63920;52.130;5.584;2023-03-01T02:13:10;10.10;;;7.30;;
75320;SDS011;63920;52.130;5.584;2023-03-01T02:15:37;11.07;;;7.55;;
75320;SDS011;63920;52.130;5.584;2023-03-01T02:18:05;12.35;;;7.63;;
75320;SDS011;63920;52.130;5.584;2023-03-01T02:20:36;10.65;;;7.43;;
75320;SDS011;63920;52.130;5.584;2023-03-01T02:23:14;12.70;;;7.55;;
75320;SDS011;63920;52.130;5.584;2023-03-01T02:28:24;9.55;;;6.95;;
75320;SDS011;63920;52.130;5.584;2023-03-01T02:30:49;12.77;;;7.15;;
75320;SDS011;63920;52.130;5.584;2023-03-01T02:33:35;12.05;;;8.18;;
75320;SDS011;63920;52.130;5.584;2023-03-01T02:36:07;9.35;;;7.40;;
75320;SDS011;63920;52.130;5.584;2023-03-01T02:38:36;9.77;;;7.07;;
75320;SDS011;63920;52.130;5.584;2023-03-01T02:41:02;17.08;;;8.85;;
75320;SDS011;63920;52.130;5.584;2023-03-01T02:43:31;12.75;;;8.38;;
75320;SDS011;63920;52.130;5.584;2023-03-01T02:45:58;11.32;;;9.35;;
75320;SDS011;63920;52.130;5.584;2023-03-01T02:48:38;14.85;;;8.90;;
75320;SDS011;63920;52.130;5.584;2023-03-01T02:51:10;14.45;;;9.07;;
75320;SDS011;63920;52.130;5.584;2023-03-01T02:53:55;11.98;;;8.77;;
75320;SDS011;63920;52.130;5.584;2023-03-01T02:56:51;8.32;;;7.35;;
75320;SDS011;63920;52.130;5.584;2023-03-01T02:59:21;11.15;;;8.70;;
75320;SDS011;63920;52.130;5.584;2023-03-01T03:01:49;12.23;;;8.75;;
75320;SDS011;63920;52.130;5.584;2023-03-01T03:04:16;13.93;;;7.93;;
75320;SDS011;63920;52.130;5.584;2023-03-01T03:06:45;14.32;;;8.73;;
75320;SDS011;63920;52.130;5.584;2023-03-01T03:09:12;10.70;;;8.48;;
75320;SDS011;63920;52.130;5.584;2023-03-01T03:11:38;13.32;;;8.25;;
75320;SDS011;63920;52.130;5.584;2023-03-01T03:14:06;11.75;;;8.30;;
75320;SDS011;63920;52.130;5.584;2023-03-01T03:16:39;12.30;;;8.13;;
75320;SDS011;63920;52.130;5.584;2023-03-01T03:19:09;11.57;;;8.05;;
75320;SDS011;63920;52.130;5.584;2023-03-01T03:21:35;13.25;;;8.38;;
75320;SDS011;63920;52.130;5.584;2023-03-01T03:24:01;11.43;;;8.38;;
75320;SDS011;63920;52.130;5.584;2023-03-01T03:26:26;11.32;;;8.18;;
75320;SDS011;63920;52.130;5.584;2023-03-01T03:28:52;12.88;;;8.07;;
75320;SDS011;63920;52.130;5.584;2023-03-01T03:31:18;27.67;;;9.40;;
75320;SDS011;63920;52.130;5.584;2023-03-01T03:33:43;11.38;;;8.52;;
75320;SDS011;63920;52.130;5.584;2023-03-01T03:36:09;11.25;;;7.85;;
75320;SDS011;63920;52.130;5.584;2023-03-01T03:38:38;11.68;;;8.38;;
75320;SDS011;63920;52.130;5.584;2023-03-01T03:41:05;12.60;;;8.18;;
75320;SDS011;63920;52.130;5.584;2023-03-01T03:43:33;12.25;;;9.32;;
75320;SDS011;63920;52.130;5.584;2023-03-01T03:46:00;13.15;;;8.43;;
75320;SDS011;63920;52.130;5.584;2023-03-01T03:48:30;9.43;;;8.23;;
75320;SDS011;63920;52.130;5.584;2023-03-01T03:50:58;12.55;;;7.97;;
75320;SDS011;63920;52.130;5.584;2023-03-01T03:53:25;10.00;;;8.45;;
75320;SDS011;63920;52.130;5.584;2023-03-01T03:55:52;11.52;;;8.30;;
75320;SDS011;63920;52.130;5.584;2023-03-01T03:58:19;12.15;;;8.60;;
75320;SDS011;63920;52.130;5.584;2023-03-01T04:00:48;17.25;;;8.90;;
75320;SDS011;63920;52.130;5.584;2023-03-01T04:03:15;12.65;;;9.43;;
75320;SDS011;63920;52.130;5.584;2023-03-01T04:05:41;10.38;;;8.43;;
75320;SDS011;63920;52.130;5.584;2023-03-01T04:08:07;11.80;;;8.57;;
75320;SDS011;63920;52.130;5.584;2023-03-01T04:13:01;12.38;;;8.45;;
75320;SDS011;63920;52.130;5.584;2023-03-01T04:15:27;10.38;;;8.95;;
75320;SDS011;63920;52.130;5.584;2023-03-01T04:17:53;13.43;;;8.73;;
75320;SDS011;63920;52.130;5.584;2023-03-01T04:20:21;11.38;;;9.38;;
75320;SDS011;63920;52.130;5.584;2023-03-01T04:22:52;12.30;;;9.23;;
75320;SDS011;63920;52.130;5.584;2023-03-01T04:25:22;13.25;;;9.38;;
75320;SDS011;63920;52.130;5.584;2023-03-01T04:27:48;13.15;;;9.23;;
75320;SDS011;63920;52.130;5.584;2023-03-01T04:30:14;13.27;;;8.98;;
75320;SDS011;63920;52.130;5.584;2023-03-01T04:32:40;11.75;;;9.13;;
75320;SDS011;63920;52.130;5.584;2023-03-01T04:35:06;13.98;;;9.18;;
75320;SDS011;63920;52.130;5.584;2023-03-01T04:37:32;9.98;;;8.68;;
75320;SDS011;63920;52.130;5.584;2023-03-01T04:39:59;15.35;;;9.10;;
75320;SDS011;63920;52.130;5.584;2023-03-01T04:42:37;12.38;;;8.95;;
75320;SDS011;63920;52.130;5.584;2023-03-01T04:45:02;13.60;;;8.70;;
75320;SDS011;63920;52.130;5.584;2023-03-01T04:47:37;18.23;;;8.98;;
75320;SDS011;63920;52.130;5.584;2023-03-01T04:50:07;13.05;;;9.48;;
75320;SDS011;63920;52.130;5.584;2023-03-01T04:52:34;13.63;;;8.85;;
75320;SDS011;63920;52.130;5.584;2023-03-01T04:55:00;9.65;;;8.02;;
75320;SDS011;63920;52.130;5.584;2023-03-01T04:57:29;12.93;;;8.75;;
75320;SDS011;63920;52.130;5.584;2023-03-01T04:59:55;11.02;;;8.15;;
75320;SDS011;63920;52.130;5.584;2023-03-01T05:02:21;10.52;;;8.48;;
75320;SDS011;63920;52.130;5.584;2023-03-01T05:04:46;12.15;;;8.60;;
75320;SDS011;63920;52.130;5.584;2023-03-01T05:07:12;13.65;;;7.95;;
75320;SDS011;63920;52.130;5.584;2023-03-01T05:09:45;15.02;;;9.57;;
75320;SDS011;63920;52.130;5.584;2023-03-01T05:12:11;11.02;;;8.32;;
75320;SDS011;63920;52.130;5.584;2023-03-01T05:14:37;12.02;;;8.98;;
75320;SDS011;63920;52.130;5.584;2023-03-01T05:17:03;9.75;;;7.95;;
75320;SDS011;63920;52.130;5.584;2023-03-01T05:19:29;15.15;;;8.63;;
75320;SDS011;63920;52.130;5.584;2023-03-01T05:21:58;10.20;;;8.70;;
75320;SDS011;63920;52.130;5.584;2023-03-01T05:24:27;9.75;;;8.50;;
75320;SDS011;63920;52.130;5.584;2023-03-01T05:26:54;14.15;;;9.10;;
75320;SDS011;63920;52.130;5.584;2023-03-01T05:29:21;10.63;;;8.70;;
75320;SDS011;63920;52.130;5.584;2023-03-01T05:31:53;10.65;;;8.45;;
75320;SDS011;63920;52.130;5.584;2023-03-01T05:34:26;13.32;;;9.20;;
75320;SDS011;63920;52.130;5.584;2023-03-01T05:36:57;12.77;;;9.07;;
75320;SDS011;63920;52.130;5.584;2023-03-01T05:39:23;13.75;;;8.77;;
75320;SDS011;63920;52.130;5.584;2023-03-01T05:41:55;10.23;;;8.63;;
75320;SDS011;63920;52.130;5.584;2023-03-01T05:44:22;10.32;;;8.25;;
75320;SDS011;63920;52.130;5.584;2023-03-01T05:46:48;14.57;;;8.45;;
75320;SDS011;63920;52.130;5.584;2023-03-01T05:49:14;12.88;;;8.45;;
75320;SDS011;63920;52.130;5.584;2023-03-01T05:51:41;10.90;;;8.07;;
75320;SDS011;63920;52.130;5.584;2023-03-01T05:54:08;15.98;;;9.32;;
75320;SDS011;63920;52.130;5.584;2023-03-01T05:56:34;13.57;;;8.23;;
75320;SDS011;63920;52.130;5.584;2023-03-01T05:59:01;11.43;;;8.10;;
75320;SDS011;63920;52.130;5.584;2023-03-01T06:01:27;11.50;;;8.50;;
75320;SDS011;63920;52.130;5.584;2023-03-01T06:03:54;10.70;;;8.25;;
75320;SDS011;63920;52.130;5.584;2023-03-01T06:06:20;13.55;;;9.00;;
75320;SDS011;63920;52.130;5.584;2023-03-01T06:08:46;14.52;;;8.63;;
75320;SDS011;63920;52.130;5.584;2023-03-01T06:11:12;14.70;;;10.77;;
75320;SDS011;63920;52.130;5.584;2023-03-01T06:13:37;17.35;;;10.77;;
75320;SDS011;63920;52.130;5.584;2023-03-01T06:16:06;16.55;;;10.82;;
75320;SDS011;63920;52.130;5.584;2023-03-01T06:18:32;17.55;;;10.45;;
75320;SDS011;63920;52.130;5.584;2023-03-01T06:20:57;20.88;;;12.00;;
75320;SDS011;63920;52.130;5.584;2023-03-01T06:23:23;25.95;;;11.45;;
75320;SDS011;63920;52.130;5.584;2023-03-01T06:25:49;22.08;;;11.10;;
75320;SDS011;63920;52.130;5.584;2023-03-01T06:28:15;20.67;;;10.95;;
75320;SDS011;63920;52.130;5.584;2023-03-01T06:30:41;19.17;;;10.80;;
75320;SDS011;63920;52.130;5.584;2023-03-01T06:33:06;26.73;;;12.40;;
75320;SDS011;63920;52.130;5.584;2023-03-01T06:35:32;19.88;;;11.38;;
75320;SDS011;63920;52.130;5.584;2023-03-01T06:37:58;18.70;;;11.32;;
75320;SDS011;63920;52.130;5.584;2023-03-01T06:40:25;23.52;;;12.18;;
75320;SDS011;63920;52.130;5.584;2023-03-01T06:42:51;18.77;;;11.80;;
75320;SDS011;63920;52.130;5.584;2023-03-01T06:45:17;21.15;;;12.85;;
75320;SDS011;63920;52.130;5.584;2023-03-01T06:47:44;18.40;;;12.25;;
75320;SDS011;63920;52.130;5.584;2023-03-01T06:50:09;17.40;;;12.68;;
75320;SDS011;63920;52.130;5.584;2023-03-01T06:52:36;21.20;;;12.13;;
75320;SDS011;63920;52.130;5.584;2023-03-01T06:55:01;22.15;;;13.35;;
75320;SDS011;63920;52.130;5.584;2023-03-01T06:57:27;30.60;;;14.68;;
75320;SDS011;63920;52.130;5.584;2023-03-01T06:59:53;19.75;;;13.82;;
75320;SDS011;63920;52.130;5.584;2023-03-01T07:02:19;20.95;;;14.30;;
75320;SDS011;63920;52.130;5.584;2023-03-01T07:04:44;24.88;;;14.30;;
75320;SDS011;63920;52.130;5.584;2023-03-01T07:07:10;38.80;;;20.98;;
75320;SDS011;63920;52.130;5.584;2023-03-01T07:09:36;34.20;;;21.60;;
75320;SDS011;63920;52.130;5.584;2023-03-01T07:12:01;31.40;;;20.05;;
75320;SDS011;63920;52.130;5.584;2023-03-01T07:14:27;34.80;;;21.83;;
75320;SDS011;63920;52.130;5.584;2023-03-01T07:16:53;35.13;;;21.35;;
75320;SDS011;63920;52.130;5.584;2023-03-01T07:19:19;22.48;;;16.35;;
75320;SDS011;63920;52.130;5.584;2023-03-01T07:21:44;22.20;;;15.18;;
75320;SDS011;63920;52.130;5.584;2023-03-01T07:24:10;23.58;;;15.55;;
75320;SDS011;63920;52.130;5.584;2023-03-01T07:26:36;24.60;;;14.38;;
75320;SDS011;63920;52.130;5.584;2023-03-01T07:29:02;24.10;;;15.52;;
75320;SDS011;63920;52.130;5.584;2023-03-01T07:31:29;19.95;;;13.20;;
75320;SDS011;63920;52.130;5.584;2023-03-01T07:33:55;22.05;;;13.65;;
75320;SDS011;63920;52.130;5.584;2023-03-01T07:36:21;22.35;;;14.05;;
75320;SDS011;63920;52.130;5.584;2023-03-01T07:38:48;25.95;;;14.40;;
75320;SDS011;63920;52.130;5.584;2023-03-01T07:41:13;19.55;;;13.23;;
75320;SDS011;63920;52.130;5.584;2023-03-01T07:43:39;23.33;;;13.65;;
75320;SDS011;63920;52.130;5.584;2023-03-01T07:46:05;24.13;;;14.13;;
75320;SDS011;63920;52.130;5.584;2023-03-01T07:48:31;19.55;;;13.88;;
75320;SDS011;63920;52.130;5.584;2023-03-01T07:50:59;24.23;;;17.50;;
75320;SDS011;63920;52.130;5.584;2023-03-01T07:53:29;25.98;;;15.98;;
75320;SDS011;63920;52.130;5.584;2023-03-01T07:56:12;26.55;;;17.08;;
75320;SDS011;63920;52.130;5.584;2023-03-01T07:58:42;43.08;;;21.15;;
75320;SDS011;63920;52.130;5.584;2023-03-01T08:01:09;17.02;;;12.13;;
75320;SDS011;63920;52.130;5.584;2023-03-01T08:03:36;14.00;;;10.57;;
75320;SDS011;63920;52.130;5.584;2023-03-01T08:06:03;13.05;;;9.57;;
75320;SDS011;63920;52.130;5.584;2023-03-01T08:08:31;17.77;;;10.40;;
75320;SDS011;63920;52.130;5.584;2023-03-01T08:10:58;14.50;;;10.45;;
75320;SDS011;63920;52.130;5.584;2023-03-01T08:13:24;16.42;;;11.40;;
75320;SDS011;63920;52.130;5.584;2023-03-01T08:15:50;15.93;;;10.77;;
75320;SDS011;63920;52.130;5.584;2023-03-01T08:18:20;15.65;;;9.93;;
75320;SDS011;63920;52.130;5.584;2023-03-01T08:20:46;15.02;;;9.93;;
75320;SDS011;63920;52.130;5.584;2023-03-01T08:23:12;23.90;;;12.80;;
75320;SDS011;63920;52.130;5.584;2023-03-01T08:25:38;21.42;;;12.63;;
75320;SDS011;63920;52.130;5.584;2023-03-01T08:28:04;17.95;;;12.10;;
75320;SDS011;63920;52.130;5.584;2023-03-01T08:30:30;22.50;;;12.40;;
75320;SDS011;63920;52.130;5.584;2023-03-01T08:32:56;22.58;;;12.63;;
75320;SDS011;63920;52.130;5.584;2023-03-01T08:35:22;20.70;;;13.20;;
75320;SDS011;63920;52.130;5.584;2023-03-01T08:37:48;21.88;;;12.07;;
75320;SDS011;63920;52.130;5.584;2023-03-01T08:40:13;17.75;;;11.25;;
75320;SDS011;63920;52.130;5.584;2023-03-01T08:42:40;30.90;;;13.05;;
75320;SDS011;63920;52.130;5.584;2023-03-01T08:45:07;16.88;;;10.25;;
75320;SDS011;63920;52.130;5.584;2023-03-01T08:47:34;14.52;;;9.40;;
75320;SDS011;63920;52.130;5.584;2023-03-01T08:50:00;11.90;;;8.23;;
75320;SDS011;63920;52.130;5.584;2023-03-01T08:52:25;11.57;;;8.13;;
75320;SDS011;63920;52.130;5.584;2023-03-01T08:54:52;12.55;;;8.43;;
75320;SDS011;63920;52.130;5.584;2023-03-01T08:57:17;11.23;;;7.97;;
75320;SDS011;63920;52.130;5.584;2023-03-01T08:59:43;12.85;;;8.48;;
75320;SDS011;63920;52.130;5.584;2023-03-01T09:02:11;16.80;;;9.55;;
75320;SDS011;63920;52.130;5.584;2023-03-01T09:04:38;12.57;;;8.60;;
75320;SDS011;63920;52.130;5.584;2023-03-01T09:07:04;11.80;;;9.15;;
75320;SDS011;63920;52.130;5.584;2023-03-01T09:09:29;18.75;;;11.32;;
75320;SDS011;63920;52.130;5.584;2023-03-01T09:11:55;10.10;;;8.20;;
75320;SDS011;63920;52.130;5.584;2023-03-01T09:14:21;11.52;;;8.35;;
75320;SDS011;63920;52.130;5.584;2023-03-01T09:16:46;10.68;;;7.82;;
75320;SDS011;63920;52.130;5.584;2023-03-01T09:19:12;10.25;;;8.23;;
75320;SDS011;63920;52.130;5.584;2023-03-01T09:21:38;9.77;;;7.85;;
75320;SDS011;63920;52.130;5.584;2023-03-01T09:24:04;13.07;;;8.20;;
75320;SDS011;63920;52.130;5.584;2023-03-01T09:26:30;9.82;;;7.95;;
75320;SDS011;63920;52.130;5.584;2023-03-01T09:28:56;14.32;;;7.63;;
75320;SDS011;63920;52.130;5.584;2023-03-01T09:31:22;7.82;;;6.00;;
75320;SDS011;63920;52.130;5.584;2023-03-01T09:33:50;9.25;;;5.88;;
75320;SDS011;63920;52.130;5.584;2023-03-01T09:36:21;11.48;;;6.97;;
75320;SDS011;63920;52.130;5.584;2023-03-01T09:38:48;7.03;;;6.07;;
75320;SDS011;63920;52.130;5.584;2023-03-01T09:43:44;7.13;;;5.68;;
75320;SDS011;63920;52.130;5.584;2023-03-01T09:46:11;6.50;;;4.68;;
75320;SDS011;63920;52.130;5.584;2023-03-01T09:48:46;6.28;;;5.03;;
75320;SDS011;63920;52.130;5.584;2023-03-01T09:51:19;8.07;;;5.38;;
75320;SDS011;63920;52.130;5.584;2023-03-01T09:54:03;8.25;;;5.57;;
75320;SDS011;63920;52.130;5.584;2023-03-01T09:56:35;6.70;;;5.32;;
75320;SDS011;63920;52.130;5.584;2023-03-01T09:59:18;12.98;;;5.70;;
75320;SDS011;63920;52.130;5.584;2023-03-01T10:01:59;5.10;;;4.28;;
75320;SDS011;63920;52.130;5.584;2023-03-01T10:04:48;7.32;;;3.90;;
75320;SDS011;63920;52.130;5.584;2023-03-01T10:07:44;6.22;;;3.60;;
75320;SDS011;63920;52.130;5.584;2023-03-01T10:10:23;5.22;;;4.13;;
75320;SDS011;63920;52.130;5.584;2023-03-01T10:12:52;6.18;;;4.35;;
75320;SDS011;63920;52.130;5.584;2023-03-01T10:15:41;7.35;;;4.75;;
75320;SDS011;63920;52.130;5.584;2023-03-01T10:18:29;4.30;;;3.53;;
75320;SDS011;63920;52.130;5.584;2023-03-01T10:21:09;6.95;;;4.25;;
75320;SDS011;63920;52.130;5.584;2023-03-01T10:23:42;4.60;;;4.15;;
75320;SDS011;63920;52.130;5.584;2023-03-01T10:26:14;6.03;;;3.83;;
75320;SDS011;63920;52.130;5.584;2023-03-01T10:34:15;13.30;;;3.50;;
75320;SDS011;63920;52.130;5.584;2023-03-01T10:36:43;6.45;;;4.07;;
75320;SDS011;63920;52.130;5.584;2023-03-01T10:39:19;4.45;;;3.60;;
75320;SDS011;63920;52.130;5.584;2023-03-01T10:41:52;4.03;;;3.40;;
75320;SDS011;63920;52.130;5.584;2023-03-01T10:48:04;4.22;;;3.60;;
75320;SDS011;63920;52.130;5.584;2023-03-01T10:50:30;5.85;;;4.43;;
75320;SDS011;63920;52.130;5.584;2023-03-01T10:52:57;4.60;;;3.70;;
75320;SDS011;63920;52.130;5.584;2023-03-01T10:58:06;3.90;;;3.35;;
75320;SDS011;63920;52.130;5.584;2023-03-01T11:00:47;9.50;;;3.85;;
75320;SDS011;63920;52.130;5.584;2023-03-01T11:03:14;6.15;;;4.50;;
75320;SDS011;63920;52.130;5.584;2023-03-01T11:05:51;3.90;;;3.45;;
75320;SDS011;63920;52.130;5.584;2023-03-01T11:08:29;3.92;;;3.42;;
75320;SDS011;63920;52.130;5.584;2023-03-01T11:11:03;5.72;;;3.80;;
75320;SDS011;63920;52.130;5.584;2023-03-01T11:21:40;5.40;;;4.03;;
75320;SDS011;63920;52.130;5.584;2023-03-01T11:24:15;7.07;;;4.68;;
75320;SDS011;63920;52.130;5.584;2023-03-01T11:26:45;6.63;;;4.45;;
75320;SDS011;63920;52.130;5.584;2023-03-01T11:29:18;6.93;;;4.00;;
75320;SDS011;63920;52.130;5.584;2023-03-01T11:31:52;4.13;;;3.60;;
75320;SDS011;63920;52.130;5.584;2023-03-01T11:37:21;4.90;;;4.40;;
75320;SDS011;63920;52.130;5.584;2023-03-01T11:39:55;4.72;;;4.20;;
75320;SDS011;63920;52.130;5.584;2023-03-01T11:45:19;5.57;;;4.10;;
75320;SDS011;63920;52.130;5.584;2023-03-01T11:47:53;5.70;;;4.10;;
75320;SDS011;63920;52.130;5.584;2023-03-01T11:50:28;6.15;;;3.63;;
75320;SDS011;63920;52.130;5.584;2023-03-01T11:53:51;7.93;;;4.63;;
75320;SDS011;63920;52.130;5.584;2023-03-01T11:56:03;4.55;;;4.15;;
75320;SDS011;63920;52.130;5.584;2023-03-01T12:04:48;4.55;;;3.30;;
75320;SDS011;63920;52.130;5.584;2023-03-01T12:13:20;3.72;;;3.42;;
75320;SDS011;63920;52.130;5.584;2023-03-01T12:18:59;6.30;;;3.72;;
75320;SDS011;63920;52.130;5.584;2023-03-01T12:21:42;4.97;;;4.03;;
75320;SDS011;63920;52.130;5.584;2023-03-01T12:24:27;6.43;;;4.22;;
75320;SDS011;63920;52.130;5.584;2023-03-01T12:32:22;5.78;;;4.57;;
75320;SDS011;63920;52.130;5.584;2023-03-01T12:35:23;4.55;;;3.90;;
75320;SDS011;63920;52.130;5.584;2023-03-01T12:41:06;5.72;;;4.90;;
75320;SDS011;63920;52.130;5.584;2023-03-01T12:46:57;9.55;;;4.88;;
75320;SDS011;63920;52.130;5.584;2023-03-01T12:49:43;8.27;;;5.55;;
75320;SDS011;63920;52.130;5.584;2023-03-01T12:54:57;14.95;;;5.38;;
75320;SDS011;63920;52.130;5.584;2023-03-01T12:57:31;7.22;;;4.25;;
75320;SDS011;63920;52.130;5.584;2023-03-01T13:08:30;6.22;;;4.25;;
75320;SDS011;63920;52.130;5.584;2023-03-01T13:11:01;4.35;;;3.60;;
75320;SDS011;63920;52.130;5.584;2023-03-01T13:13:29;5.50;;;3.88;;
75320;SDS011;63920;52.130;5.584;2023-03-01T13:15:55;5.72;;;4.22;;
75320;SDS011;63920;52.130;5.584;2023-03-01T13:31:56;9.05;;;4.85;;
75320;SDS011;63920;52.130;5.584;2023-03-01T13:34:02;5.13;;;4.38;;
75320;SDS011;63920;52.130;5.584;2023-03-01T13:41:48;9.55;;;4.03;;
75320;SDS011;63920;52.130;5.584;2023-03-01T13:47:07;7.07;;;4.05;;
75320;SDS011;63920;52.130;5.584;2023-03-01T13:49:47;4.05;;;3.65;;
75320;SDS011;63920;52.130;5.584;2023-03-01T13:55:00;6.32;;;3.95;;
75320;SDS011;63920;52.130;5.584;2023-03-01T13:57:32;5.80;;;3.80;;
75320;SDS011;63920;52.130;5.584;2023-03-01T14:00:01;6.13;;;3.55;;
75320;SDS011;63920;52.130;5.584;2023-03-01T14:02:29;6.05;;;3.97;;
75320;SDS011;63920;52.130;5.584;2023-03-01T14:04:55;4.10;;;3.47;;
75320;SDS011;63920;52.130;5.584;2023-03-01T14:07:23;5.20;;;3.80;;
75320;SDS011;63920;52.130;5.584;2023-03-01T14:09:52;5.90;;;4.22;;
75320;SDS011;63920;52.130;5.584;2023-03-01T14:12:39;5.72;;;4.28;;
75320;SDS011;63920;52.130;5.584;2023-03-01T14:15:26;6.78;;;4.38;;
75320;SDS011;63920;52.130;5.584;2023-03-01T14:20:54;6.68;;;4.10;;
75320;SDS011;63920;52.130;5.584;2023-03-01T14:23:21;5.75;;;4.38;;
75320;SDS011;63920;52.130;5.584;2023-03-01T14:25:52;4.75;;;4.22;;
75320;SDS011;63920;52.130;5.584;2023-03-01T14:28:21;5.32;;;3.90;;
75320;SDS011;63920;52.130;5.584;2023-03-01T14:30:48;6.40;;;4.70;;
75320;SDS011;63920;52.130;5.584;2023-03-01T14:41:07;6.60;;;4.40;;
75320;SDS011;63920;52.130;5.584;2023-03-01T14:43:40;6.15;;;4.03;;
75320;SDS011;63920;52.130;5.584;2023-03-01T14:46:20;4.68;;;3.83;;
75320;SDS011;63920;52.130;5.584;2023-03-01T14:48:52;4.22;;;3.63;;
75320;SDS011;63920;52.130;5.584;2023-03-01T14:51:20;9.57;;;5.95;;
75320;SDS011;63920;52.130;5.584;2023-03-01T14:53:46;6.38;;;4.80;;
75320;SDS011;63920;52.130;5.584;2023-03-01T14:56:13;7.78;;;5.15;;
75320;SDS011;63920;52.130;5.584;2023-03-01T14:58:42;6.47;;;5.13;;
75320;SDS011;63920;52.130;5.584;2023-03-01T15:01:10;9.88;;;5.18;;
75320;SDS011;63920;52.130;5.584;2023-03-01T15:03:42;19.73;;;4.85;;
75320;SDS011;63920;52.130;5.584;2023-03-01T15:06:11;6.40;;;4.22;;
75320;SDS011;63920;52.130;5.584;2023-03-01T15:08:41;4.32;;;3.88;;
75320;SDS011;63920;52.130;5.584;2023-03-01T15:11:19;5.43;;;4.28;;
75320;SDS011;63920;52.130;5.584;2023-03-01T15:13:49;7.05;;;4.85;;
75320;SDS011;63920;52.130;5.584;2023-03-01T15:16:16;5.78;;;4.45;;
75320;SDS011;63920;52.130;5.584;2023-03-01T15:18:47;7.72;;;4.00;;
75320;SDS011;63920;52.130;5.584;2023-03-01T15:23:52;6.40;;;4.00;;
75320;SDS011;63920;52.130;5.584;2023-03-01T15:26:29;5.75;;;3.88;;
75320;SDS011;63920;52.130;5.584;2023-03-01T15:28:58;5.00;;;3.78;;
75320;SDS011;63920;52.130;5.584;2023-03-01T15:31:26;5.28;;;4.07;;
75320;SDS011;63920;52.130;5.584;2023-03-01T15:34:07;8.30;;;3.75;;
75320;SDS011;63920;52.130;5.584;2023-03-01T15:36:57;10.32;;;6.30;;
75320;SDS011;63920;52.130;5.584;2023-03-01T15:39:39;6.10;;;4.88;;
75320;SDS011;63920;52.130;5.584;2023-03-01T15:45:07;6.80;;;4.47;;
75320;SDS011;63920;52.130;5.584;2023-03-01T15:47:46;8.63;;;5.50;;
75320;SDS011;63920;52.130;5.584;2023-03-01T15:53:00;7.07;;;4.90;;
75320;SDS011;63920;52.130;5.584;2023-03-01T15:55:30;5.82;;;4.28;;
75320;SDS011;63920;52.130;5.584;2023-03-01T15:58:09;7.13;;;4.43;;
75320;SDS011;63920;52.130;5.584;2023-03-01T16:00:40;6.47;;;4.60;;
75320;SDS011;63920;52.130;5.584;2023-03-01T16:03:06;4.85;;;4.20;;
75320;SDS011;63920;52.130;5.584;2023-03-01T16:05:34;4.95;;;4.13;;
75320;SDS011;63920;52.130;5.584;2023-03-01T16:08:01;8.70;;;5.47;;
75320;SDS011;63920;52.130;5.584;2023-03-01T16:10:27;12.07;;;5.53;;
75320;SDS011;63920;52.130;5.584;2023-03-01T16:12:53;6.53;;;5.07;;
75320;SDS011;63920;52.130;5.584;2023-03-01T16:17:46;7.95;;;5.28;;
75320;SDS011;63920;52.130;5.584;2023-03-01T16:20:12;8.95;;;5.10;;
75320;SDS011;63920;52.130;5.584;2023-03-01T16:22:42;6.07;;;4.38;;
75320;SDS011;63920;52.130;5.584;2023-03-01T16:25:18;8.70;;;4.85;;
75320;SDS011;63920;52.130;5.584;2023-03-01T16:27:45;10.07;;;7.30;;
75320;SDS011;63920;52.130;5.584;2023-03-01T16:30:12;8.90;;;5.50;;
75320;SDS011;63920;52.130;5.584;2023-03-01T16:32:40;11.57;;;8.30;;
75320;SDS011;63920;52.130;5.584;2023-03-01T16:35:06;17.42;;;9.70;;
75320;SDS011;63920;52.130;5.584;2023-03-01T16:37:33;12.93;;;7.00;;
75320;SDS011;63920;52.130;5.584;2023-03-01T16:39:59;20.00;;;11.38;;
75320;SDS011;63920;52.130;5.584;2023-03-01T16:42:25;8.27;;;6.38;;
75320;SDS011;63920;52.130;5.584;2023-03-01T16:44:57;11.57;;;6.07;;
75320;SDS011;63920;52.130;5.584;2023-03-01T16:47:23;6.82;;;5.38;;
75320;SDS011;63920;52.130;5.584;2023-03-01T16:49:52;8.98;;;6.82;;